sensor_id;sensor_type;location;lat;lon;timestamp;P1;durP1;ratioP1;P2;durP2;ratioP2
32872;SDS011;19224;52.462;16.898;2023-03-02T00:02:21;83.37;;;41.67;;
32872;SDS011;19224;52.462;16.898;2023-03-02T00:04:52;81.57;;;40.43;;
32872;SDS011;19224;52.462;16.898;2023-03-02T00:07:27;77.03;;;37.58;;
32872;SDS011;19224;52.462;16.898;2023-03-02T00:10:01;78.03;;;37.13;;
32872;SDS011;19224;52.462;16.898;2023-03-02T00:12:32;74.20;;;37.63;;
32872;SDS011;19224;52.462;16.898;2023-03-02T00:15:04;82.57;;;39.67;;
32872;SDS011;19224;52.462;16.898;2023-03-02T00:17:35;80.42;;;40.28;;
32872;SDS011;19224;52.462;16.898;2023-03-02T00:20:06;79.92;;;38.65;;
32872;SDS011;19224;52.462;16.898;2023-03-02T00:22:39;81.30;;;40.65;;
32872;SDS011;19224;52.462;16.898;2023-03-02T00:25:13;82.63;;;41.93;;
32872;SDS011;19224;52.462;16.898;2023-03-02T00:27:44;84.50;;;41.05;;
32872;SDS011;19224;52.462;16.898;2023-03-02T00:30:15;95.60;;;47.55;;
32872;SDS011;19224;52.462;16.898;2023-03-02T00:32:46;94.50;;;46.37;;
32872;SDS011;19224;52.462;16.898;2023-03-02T00:35:16;100.12;;;51.68;;
32872;SDS011;19224;52.462;16.898;2023-03-02T00:37:47;97.12;;;50.67;;
32872;SDS011;19224;52.462;16.898;2023-03-02T00:40:17;84.22;;;44.25;;
32872;SDS011;19224;52.462;16.898;2023-03-02T00:42:48;146.45;;;69.00;;
32872;SDS011;19224;52.462;16.898;2023-03-02T00:45:18;139.35;;;67.40;;
32872;SDS011;19224;52.462;16.898;2023-03-02T00:47:48;78.93;;;42.70;;
32872;SDS011;19224;52.462;16.898;2023-03-02T00:50:19;87.87;;;43.10;;
32872;SDS011;19224;52.462;16.898;2023-03-02T00:52:49;63.70;;;33.30;;
32872;SDS011;19224;52.462;16.898;2023-03-02T00:55:19;66.72;;;33.75;;
32872;SDS011;19224;52.462;16.898;2023-03-02T00:57:53;60.00;;;30.90;;
32872;SDS011;19224;52.462;16.898;2023-03-02T01:00:23;65.37;;;34.27;;
32872;SDS011;19224;52.462;16.898;2023-03-02T01:02:57;59.10;;;30.30;;
32872;SDS011;19224;52.462;16.898;2023-03-02T01:05:27;56.97;;;31.00;;
32872;SDS011;19224;52.462;16.898;2023-03-02T01:07:58;54.30;;;28.77;;
32872;SDS011;19224;52.462;16.898;2023-03-02T01:10:30;55.23;;;29.98;;
32872;SDS011;19224;52.462;16.898;2023-03-02T01:13:00;54.50;;;28.67;;
32872;SDS011;19224;52.462;16.898;2023-03-02T01:15:32;54.13;;;28.83;;
32872;SDS011;19224;52.462;16.898;2023-03-02T01:18:03;52.03;;;26.93;;
32872;SDS011;19224;52.462;16.898;2023-03-02T01:20:33;54.77;;;27.47;;
32872;SDS011;19224;52.462;16.898;2023-03-02T01:23:04;51.03;;;27.67;;
32872;SDS011;19224;52.462;16.898;2023-03-02T01:25:34;46.67;;;25.77;;
32872;SDS011;19224;52.462;16.898;2023-03-02T01:28:06;50.60;;;26.77;;
32872;SDS011;19224;52.462;16.898;2023-03-02T01:30:36;50.60;;;25.23;;
32872;SDS011;19224;52.462;16.898;2023-03-02T01:33:07;47.33;;;24.27;;
32872;SDS011;19224;52.462;16.898;2023-03-02T01:35:37;47.70;;;25.17;;
32872;SDS011;19224;52.462;16.898;2023-03-02T01:38:08;55.93;;;26.07;;
32872;SDS011;19224;52.462;16.898;2023-03-02T01:40:38;44.85;;;24.00;;
32872;SDS011;19224;52.462;16.898;2023-03-02T01:43:14;50.80;;;25.43;;
32872;SDS011;19224;52.462;16.898;2023-03-02T01:45:48;54.85;;;26.60;;
32872;SDS011;19224;52.462;16.898;2023-03-02T01:48:46;46.60;;;24.32;;
32872;SDS011;19224;52.462;16.898;2023-03-02T01:51:29;43.83;;;24.65;;
32872;SDS011;19224;52.462;16.898;2023-03-02T01:54:05;47.63;;;25.67;;
32872;SDS011;19224;52.462;16.898;2023-03-02T01:56:40;46.15;;;24.23;;
32872;SDS011;19224;52.462;16.898;2023-03-02T01:59:12;47.00;;;23.83;;
32872;SDS011;19224;52.462;16.898;2023-03-02T02:01:48;47.95;;;24.57;;
32872;SDS011;19224;52.462;16.898;2023-03-02T02:04:22;49.40;;;25.07;;
32872;SDS011;19224;52.462;16.898;2023-03-02T02:07:00;48.60;;;24.02;;
32872;SDS011;19224;52.462;16.898;2023-03-02T02:09:35;44.80;;;23.30;;
32872;SDS011;19224;52.462;16.898;2023-03-02T02:12:16;45.88;;;23.32;;
32872;SDS011;19224;52.462;16.898;2023-03-02T02:14:45;43.65;;;22.70;;
32872;SDS011;19224;52.462;16.898;2023-03-02T02:17:17;45.10;;;22.98;;
32872;SDS011;19224;52.462;16.898;2023-03-02T02:28:13;48.17;;;24.57;;
32872;SDS011;19224;52.462;16.898;2023-03-02T02:30:47;43.20;;;22.45;;
32872;SDS011;19224;52.462;16.898;2023-03-02T02:33:21;46.63;;;24.32;;
32872;SDS011;19224;52.462;16.898;2023-03-02T02:35:59;47.50;;;23.60;;
32872;SDS011;19224;52.462;16.898;2023-03-02T02:38:27;42.10;;;22.52;;
32872;SDS011;19224;52.462;16.898;2023-03-02T02:41:00;48.63;;;24.63;;
32872;SDS011;19224;52.462;16.898;2023-03-02T02:43:36;44.45;;;24.35;;
32872;SDS011;19224;52.462;16.898;2023-03-02T02:46:07;45.33;;;24.17;;
32872;SDS011;19224;52.462;16.898;2023-03-02T02:48:39;47.03;;;23.27;;
32872;SDS011;19224;52.462;16.898;2023-03-02T02:51:11;46.83;;;23.07;;
32872;SDS011;19224;52.462;16.898;2023-03-02T02:53:54;41.50;;;23.37;;
32872;SDS011;19224;52.462;16.898;2023-03-02T02:56:30;45.80;;;24.25;;
32872;SDS011;19224;52.462;16.898;2023-03-02T02:59:12;51.37;;;24.77;;
32872;SDS011;19224;52.462;16.898;2023-03-02T03:01:55;48.90;;;25.50;;
32872;SDS011;19224;52.462;16.898;2023-03-02T03:04:27;55.57;;;26.53;;
32872;SDS011;19224;52.462;16.898;2023-03-02T03:07:01;53.23;;;26.33;;
32872;SDS011;19224;52.462;16.898;2023-03-02T03:09:34;53.25;;;27.75;;
32872;SDS011;19224;52.462;16.898;2023-03-02T03:12:12;51.83;;;27.52;;
32872;SDS011;19224;52.462;16.898;2023-03-02T03:14:45;52.03;;;27.70;;
32872;SDS011;19224;52.462;16.898;2023-03-02T03:17:15;58.45;;;29.05;;
32872;SDS011;19224;52.462;16.898;2023-03-02T03:19:46;62.27;;;27.07;;
32872;SDS011;19224;52.462;16.898;2023-03-02T03:22:16;60.93;;;28.57;;
32872;SDS011;19224;52.462;16.898;2023-03-02T03:24:47;66.90;;;29.87;;
32872;SDS011;19224;52.462;16.898;2023-03-02T03:27:17;63.90;;;30.33;;
32872;SDS011;19224;52.462;16.898;2023-03-02T03:29:47;62.83;;;29.03;;
32872;SDS011;19224;52.462;16.898;2023-03-02T03:32:18;62.83;;;29.83;;
32872;SDS011;19224;52.462;16.898;2023-03-02T03:34:49;58.20;;;27.97;;
32872;SDS011;19224;52.462;16.898;2023-03-02T03:37:19;50.43;;;25.10;;
32872;SDS011;19224;52.462;16.898;2023-03-02T03:39:50;53.63;;;25.93;;
32872;SDS011;19224;52.462;16.898;2023-03-02T03:42:21;48.80;;;24.27;;
32872;SDS011;19224;52.462;16.898;2023-03-02T03:44:51;44.03;;;21.93;;
32872;SDS011;19224;52.462;16.898;2023-03-02T03:47:21;42.60;;;22.17;;
32872;SDS011;19224;52.462;16.898;2023-03-02T03:49:52;44.88;;;22.80;;
32872;SDS011;19224;52.462;16.898;2023-03-02T03:52:22;47.97;;;23.87;;
32872;SDS011;19224;52.462;16.898;2023-03-02T03:54:55;45.73;;;23.27;;
32872;SDS011;19224;52.462;16.898;2023-03-02T03:57:27;44.13;;;23.38;;
32872;SDS011;19224;52.462;16.898;2023-03-02T03:59:58;42.27;;;22.10;;
32872;SDS011;19224;52.462;16.898;2023-03-02T04:02:30;43.67;;;22.70;;
32872;SDS011;19224;52.462;16.898;2023-03-02T04:05:00;42.73;;;21.93;;
32872;SDS011;19224;52.462;16.898;2023-03-02T04:07:34;41.23;;;21.53;;
32872;SDS011;19224;52.462;16.898;2023-03-02T04:10:07;36.23;;;20.90;;
32872;SDS011;19224;52.462;16.898;2023-03-02T04:12:39;46.63;;;21.30;;
32872;SDS011;19224;52.462;16.898;2023-03-02T04:15:12;37.40;;;20.43;;
32872;SDS011;19224;52.462;16.898;2023-03-02T04:17:44;40.10;;;21.20;;
32872;SDS011;19224;52.462;16.898;2023-03-02T04:20:15;38.73;;;19.70;;
32872;SDS011;19224;52.462;16.898;2023-03-02T04:22:48;39.20;;;19.93;;
32872;SDS011;19224;52.462;16.898;2023-03-02T04:25:21;39.83;;;20.30;;
32872;SDS011;19224;52.462;16.898;2023-03-02T04:27:54;37.47;;;20.70;;
32872;SDS011;19224;52.462;16.898;2023-03-02T04:30:24;38.23;;;20.40;;
32872;SDS011;19224;52.462;16.898;2023-03-02T04:32:55;37.90;;;19.70;;
32872;SDS011;19224;52.462;16.898;2023-03-02T04:35:26;42.70;;;22.13;;
32872;SDS011;19224;52.462;16.898;2023-03-02T04:37:56;38.73;;;20.80;;
32872;SDS011;19224;52.462;16.898;2023-03-02T04:40:26;42.13;;;21.93;;
32872;SDS011;19224;52.462;16.898;2023-03-02T04:42:57;43.50;;;22.47;;
32872;SDS011;19224;52.462;16.898;2023-03-02T04:45:28;43.73;;;21.47;;
32872;SDS011;19224;52.462;16.898;2023-03-02T04:47:58;47.27;;;23.70;;
32872;SDS011;19224;52.462;16.898;2023-03-02T04:50:29;41.30;;;22.27;;
32872;SDS011;19224;52.462;16.898;2023-03-02T04:52:59;44.90;;;22.63;;
32872;SDS011;19224;52.462;16.898;2023-03-02T04:55:29;43.37;;;22.27;;
32872;SDS011;19224;52.462;16.898;2023-03-02T04:58:00;47.87;;;22.97;;
32872;SDS011;19224;52.462;16.898;2023-03-02T05:00:31;45.10;;;21.83;;
32872;SDS011;19224;52.462;16.898;2023-03-02T05:03:02;46.48;;;22.65;;
32872;SDS011;19224;52.462;16.898;2023-03-02T05:05:32;45.07;;;22.50;;
32872;SDS011;19224;52.462;16.898;2023-03-02T05:08:03;43.97;;;22.73;;
32872;SDS011;19224;52.462;16.898;2023-03-02T05:10:33;43.68;;;22.60;;
32872;SDS011;19224;52.462;16.898;2023-03-02T05:13:03;49.80;;;23.77;;
32872;SDS011;19224;52.462;16.898;2023-03-02T05:15:35;43.37;;;22.27;;
32872;SDS011;19224;52.462;16.898;2023-03-02T05:18:08;40.60;;;21.30;;
32872;SDS011;19224;52.462;16.898;2023-03-02T05:20:41;45.77;;;22.73;;
32872;SDS011;19224;52.462;16.898;2023-03-02T05:23:12;46.97;;;23.97;;
32872;SDS011;19224;52.462;16.898;2023-03-02T05:25:46;46.53;;;24.10;;
32872;SDS011;19224;52.462;16.898;2023-03-02T05:28:17;47.53;;;24.70;;
32872;SDS011;19224;52.462;16.898;2023-03-02T05:30:49;47.20;;;24.17;;
32872;SDS011;19224;52.462;16.898;2023-03-02T05:33:20;48.33;;;24.17;;
32872;SDS011;19224;52.462;16.898;2023-03-02T05:35:50;43.90;;;23.47;;
32872;SDS011;19224;52.462;16.898;2023-03-02T05:38:21;47.23;;;23.70;;
32872;SDS011;19224;52.462;16.898;2023-03-02T05:40:51;44.50;;;23.27;;
32872;SDS011;19224;52.462;16.898;2023-03-02T05:43:22;43.23;;;22.77;;
32872;SDS011;19224;52.462;16.898;2023-03-02T05:45:52;43.17;;;22.77;;
32872;SDS011;19224;52.462;16.898;2023-03-02T05:48:28;42.60;;;22.80;;
32872;SDS011;19224;52.462;16.898;2023-03-02T05:50:59;37.63;;;20.73;;
32872;SDS011;19224;52.462;16.898;2023-03-02T05:53:30;36.93;;;19.50;;
32872;SDS011;19224;52.462;16.898;2023-03-02T05:56:00;38.63;;;21.53;;
32872;SDS011;19224;52.462;16.898;2023-03-02T05:58:30;35.60;;;19.83;;
32872;SDS011;19224;52.462;16.898;2023-03-02T06:01:01;35.30;;;18.87;;
32872;SDS011;19224;52.462;16.898;2023-03-02T06:03:34;32.40;;;18.43;;
32872;SDS011;19224;52.462;16.898;2023-03-02T06:06:04;34.40;;;18.97;;
32872;SDS011;19224;52.462;16.898;2023-03-02T06:08:35;28.37;;;15.70;;
32872;SDS011;19224;52.462;16.898;2023-03-02T06:11:07;28.00;;;15.73;;
32872;SDS011;19224;52.462;16.898;2023-03-02T06:13:38;27.30;;;15.83;;
32872;SDS011;19224;52.462;16.898;2023-03-02T06:16:09;24.97;;;14.40;;
32872;SDS011;19224;52.462;16.898;2023-03-02T06:18:39;27.17;;;14.73;;
32872;SDS011;19224;52.462;16.898;2023-03-02T06:21:10;26.67;;;15.30;;
32872;SDS011;19224;52.462;16.898;2023-03-02T06:23:40;24.23;;;14.00;;
32872;SDS011;19224;52.462;16.898;2023-03-02T06:26:11;23.67;;;13.67;;
32872;SDS011;19224;52.462;16.898;2023-03-02T06:28:42;26.30;;;13.97;;
32872;SDS011;19224;52.462;16.898;2023-03-02T06:31:12;24.67;;;14.07;;
32872;SDS011;19224;52.462;16.898;2023-03-02T06:33:42;25.30;;;14.07;;
32872;SDS011;19224;52.462;16.898;2023-03-02T06:36:12;27.67;;;14.57;;
32872;SDS011;19224;52.462;16.898;2023-03-02T06:38:44;27.27;;;14.27;;
32872;SDS011;19224;52.462;16.898;2023-03-02T06:41:14;25.23;;;13.40;;
32872;SDS011;19224;52.462;16.898;2023-03-02T06:43:45;20.97;;;12.47;;
32872;SDS011;19224;52.462;16.898;2023-03-02T06:46:15;23.57;;;12.37;;
32872;SDS011;19224;52.462;16.898;2023-03-02T06:48:45;26.03;;;13.43;;
32872;SDS011;19224;52.462;16.898;2023-03-02T06:51:16;27.42;;;12.98;;
32872;SDS011;19224;52.462;16.898;2023-03-02T06:53:46;25.10;;;13.07;;
32872;SDS011;19224;52.462;16.898;2023-03-02T06:56:17;26.93;;;13.93;;
32872;SDS011;19224;52.462;16.898;2023-03-02T06:58:47;27.53;;;13.57;;
32872;SDS011;19224;52.462;16.898;2023-03-02T07:01:17;25.72;;;13.58;;
32872;SDS011;19224;52.462;16.898;2023-03-02T07:03:48;25.00;;;13.93;;
32872;SDS011;19224;52.462;16.898;2023-03-02T07:06:18;24.07;;;12.50;;
32872;SDS011;19224;52.462;16.898;2023-03-02T07:08:48;24.20;;;13.30;;
32872;SDS011;19224;52.462;16.898;2023-03-02T07:11:19;27.97;;;13.40;;
32872;SDS011;19224;52.462;16.898;2023-03-02T07:13:49;24.60;;;12.78;;
32872;SDS011;19224;52.462;16.898;2023-03-02T07:16:19;23.77;;;12.93;;
32872;SDS011;19224;52.462;16.898;2023-03-02T07:18:50;22.33;;;12.30;;
32872;SDS011;19224;52.462;16.898;2023-03-02T07:21:20;24.80;;;12.77;;
32872;SDS011;19224;52.462;16.898;2023-03-02T07:23:51;27.93;;;13.87;;
32872;SDS011;19224;52.462;16.898;2023-03-02T07:26:21;23.10;;;12.00;;
32872;SDS011;19224;52.462;16.898;2023-03-02T07:28:52;26.53;;;12.83;;
32872;SDS011;19224;52.462;16.898;2023-03-02T07:31:22;23.97;;;12.17;;
32872;SDS011;19224;52.462;16.898;2023-03-02T07:33:53;22.03;;;11.57;;
32872;SDS011;19224;52.462;16.898;2023-03-02T07:36:23;27.37;;;12.67;;
32872;SDS011;19224;52.462;16.898;2023-03-02T07:38:53;23.93;;;12.07;;
32872;SDS011;19224;52.462;16.898;2023-03-02T07:41:24;25.30;;;11.70;;
32872;SDS011;19224;52.462;16.898;2023-03-02T07:43:54;27.73;;;12.20;;
32872;SDS011;19224;52.462;16.898;2023-03-02T07:46:24;26.30;;;12.18;;
32872;SDS011;19224;52.462;16.898;2023-03-02T07:48:55;23.90;;;12.05;;
32872;SDS011;19224;52.462;16.898;2023-03-02T07:51:27;28.03;;;13.67;;
32872;SDS011;19224;52.462;16.898;2023-03-02T07:53:57;24.65;;;12.58;;
32872;SDS011;19224;52.462;16.898;2023-03-02T07:56:29;26.30;;;13.45;;
32872;SDS011;19224;52.462;16.898;2023-03-02T07:59:00;29.23;;;13.13;;
32872;SDS011;19224;52.462;16.898;2023-03-02T08:01:30;26.40;;;12.95;;
32872;SDS011;19224;52.462;16.898;2023-03-02T08:04:00;25.62;;;12.07;;
32872;SDS011;19224;52.462;16.898;2023-03-02T08:06:31;27.60;;;13.25;;
32872;SDS011;19224;52.462;16.898;2023-03-02T08:09:02;25.97;;;12.45;;
32872;SDS011;19224;52.462;16.898;2023-03-02T08:11:33;24.57;;;12.58;;
32872;SDS011;19224;52.462;16.898;2023-03-02T08:14:03;27.27;;;13.05;;
32872;SDS011;19224;52.462;16.898;2023-03-02T08:16:33;24.92;;;12.68;;
32872;SDS011;19224;52.462;16.898;2023-03-02T08:19:04;26.10;;;13.05;;
32872;SDS011;19224;52.462;16.898;2023-03-02T08:21:34;29.60;;;13.48;;
32872;SDS011;19224;52.462;16.898;2023-03-02T08:24:05;27.42;;;13.25;;
32872;SDS011;19224;52.462;16.898;2023-03-02T08:29:28;31.68;;;13.70;;
32872;SDS011;19224;52.462;16.898;2023-03-02T08:31:59;26.23;;;12.90;;
32872;SDS011;19224;52.462;16.898;2023-03-02T08:34:29;28.47;;;13.32;;
32872;SDS011;19224;52.462;16.898;2023-03-02T08:37:00;26.85;;;12.60;;
32872;SDS011;19224;52.462;16.898;2023-03-02T08:39:30;27.77;;;13.00;;
32872;SDS011;19224;52.462;16.898;2023-03-02T08:42:01;28.60;;;12.98;;
32872;SDS011;19224;52.462;16.898;2023-03-02T08:44:31;22.77;;;11.35;;
32872;SDS011;19224;52.462;16.898;2023-03-02T08:47:02;27.58;;;12.68;;
32872;SDS011;19224;52.462;16.898;2023-03-02T08:49:33;24.18;;;11.35;;
32872;SDS011;19224;52.462;16.898;2023-03-02T08:52:06;29.52;;;13.53;;
32872;SDS011;19224;52.462;16.898;2023-03-02T08:54:37;25.25;;;12.73;;
32872;SDS011;19224;52.462;16.898;2023-03-02T08:57:13;25.20;;;12.28;;
32872;SDS011;19224;52.462;16.898;2023-03-02T08:59:40;29.90;;;13.35;;
32872;SDS011;19224;52.462;16.898;2023-03-02T09:02:10;24.67;;;12.40;;
32872;SDS011;19224;52.462;16.898;2023-03-02T09:04:41;26.40;;;12.90;;
32872;SDS011;19224;52.462;16.898;2023-03-02T09:07:11;29.00;;;13.18;;
32872;SDS011;19224;52.462;16.898;2023-03-02T09:09:43;27.17;;;13.53;;
32872;SDS011;19224;52.462;16.898;2023-03-02T09:12:13;28.23;;;13.75;;
32872;SDS011;19224;52.462;16.898;2023-03-02T09:14:44;25.97;;;12.88;;
32872;SDS011;19224;52.462;16.898;2023-03-02T09:17:14;25.05;;;12.82;;
32872;SDS011;19224;52.462;16.898;2023-03-02T09:19:45;27.77;;;12.63;;
32872;SDS011;19224;52.462;16.898;2023-03-02T09:22:15;26.37;;;12.33;;
32872;SDS011;19224;52.462;16.898;2023-03-02T09:24:45;26.75;;;12.70;;
32872;SDS011;19224;52.462;16.898;2023-03-02T09:27:16;21.48;;;10.85;;
32872;SDS011;19224;52.462;16.898;2023-03-02T09:29:46;21.17;;;11.28;;
32872;SDS011;19224;52.462;16.898;2023-03-02T09:32:17;28.50;;;12.25;;
32872;SDS011;19224;52.462;16.898;2023-03-02T09:34:47;23.70;;;13.08;;
32872;SDS011;19224;52.462;16.898;2023-03-02T09:37:18;24.12;;;12.37;;
32872;SDS011;19224;52.462;16.898;2023-03-02T09:39:48;25.23;;;12.47;;
32872;SDS011;19224;52.462;16.898;2023-03-02T09:42:27;27.13;;;12.65;;
32872;SDS011;19224;52.462;16.898;2023-03-02T09:45:35;26.52;;;12.58;;
32872;SDS011;19224;52.462;16.898;2023-03-02T09:52:09;69.45;;;35.05;;
32872;SDS011;19224;52.462;16.898;2023-03-02T09:56:33;37.17;;;16.57;;
32872;SDS011;19224;52.462;16.898;2023-03-02T09:59:11;34.70;;;16.42;;
32872;SDS011;19224;52.462;16.898;2023-03-02T10:04:56;26.45;;;13.00;;
32872;SDS011;19224;52.462;16.898;2023-03-02T10:07:32;30.82;;;13.40;;
32872;SDS011;19224;52.462;16.898;2023-03-02T10:18:48;32.93;;;12.88;;
32872;SDS011;19224;52.462;16.898;2023-03-02T10:21:33;23.75;;;11.65;;
32872;SDS011;19224;52.462;16.898;2023-03-02T10:24:16;27.65;;;12.37;;
32872;SDS011;19224;52.462;16.898;2023-03-02T10:27:13;26.85;;;12.37;;
32872;SDS011;19224;52.462;16.898;2023-03-02T10:32:30;28.62;;;13.85;;
32872;SDS011;19224;52.462;16.898;2023-03-02T10:35:13;26.77;;;13.62;;
32872;SDS011;19224;52.462;16.898;2023-03-02T10:37:53;32.67;;;17.27;;
32872;SDS011;19224;52.462;16.898;2023-03-02T10:43:10;28.30;;;13.62;;
32872;SDS011;19224;52.462;16.898;2023-03-02T10:46:12;28.42;;;14.75;;
32872;SDS011;19224;52.462;16.898;2023-03-02T10:48:47;31.37;;;14.90;;
32872;SDS011;19224;52.462;16.898;2023-03-02T10:51:21;31.75;;;16.12;;
32872;SDS011;19224;52.462;16.898;2023-03-02T10:56:47;30.50;;;15.15;;
32872;SDS011;19224;52.462;16.898;2023-03-02T11:02:24;35.03;;;14.63;;
32872;SDS011;19224;52.462;16.898;2023-03-02T11:04:57;30.32;;;14.50;;
32872;SDS011;19224;52.462;16.898;2023-03-02T11:08:07;28.02;;;14.05;;
32872;SDS011;19224;52.462;16.898;2023-03-02T11:10:37;29.15;;;13.83;;
32872;SDS011;19224;52.462;16.898;2023-03-02T11:13:27;29.75;;;13.75;;
32872;SDS011;19224;52.462;16.898;2023-03-02T11:19:01;25.08;;;13.32;;
32872;SDS011;19224;52.462;16.898;2023-03-02T11:21:42;31.23;;;14.28;;
32872;SDS011;19224;52.462;16.898;2023-03-02T11:24:17;26.80;;;13.58;;
32872;SDS011;19224;52.462;16.898;2023-03-02T11:27:00;30.10;;;13.00;;
32872;SDS011;19224;52.462;16.898;2023-03-02T11:29:57;25.45;;;13.45;;
32872;SDS011;19224;52.462;16.898;2023-03-02T11:35:11;30.00;;;13.53;;
32872;SDS011;19224;52.462;16.898;2023-03-02T11:37:58;29.87;;;12.95;;
32872;SDS011;19224;52.462;16.898;2023-03-02T11:40:50;26.00;;;13.32;;
32872;SDS011;19224;52.462;16.898;2023-03-02T11:43:31;23.47;;;12.73;;
32872;SDS011;19224;52.462;16.898;2023-03-02T11:46:02;24.52;;;12.98;;
32872;SDS011;19224;52.462;16.898;2023-03-02T11:48:41;24.05;;;12.50;;
32872;SDS011;19224;52.462;16.898;2023-03-02T11:51:21;25.88;;;12.75;;
32872;SDS011;19224;52.462;16.898;2023-03-02T11:56:42;28.92;;;13.00;;
32872;SDS011;19224;52.462;16.898;2023-03-02T11:59:18;25.43;;;13.32;;
32872;SDS011;19224;52.462;16.898;2023-03-02T12:01:49;24.92;;;12.25;;
32872;SDS011;19224;52.462;16.898;2023-03-02T12:07:18;25.82;;;12.30;;
32872;SDS011;19224;52.462;16.898;2023-03-02T12:09:59;28.83;;;12.47;;
32872;SDS011;19224;52.462;16.898;2023-03-02T12:12:40;28.12;;;11.93;;
32872;SDS011;19224;52.462;16.898;2023-03-02T12:21:03;24.75;;;12.98;;
32872;SDS011;19224;52.462;16.898;2023-03-02T12:26:27;22.20;;;11.30;;
32872;SDS011;19224;52.462;16.898;2023-03-02T12:29:02;20.37;;;11.00;;
32872;SDS011;19224;52.462;16.898;2023-03-02T12:31:42;26.30;;;12.25;;
32872;SDS011;19224;52.462;16.898;2023-03-02T12:36:57;31.57;;;15.53;;
32872;SDS011;19224;52.462;16.898;2023-03-02T12:39:52;27.20;;;13.45;;
32872;SDS011;19224;52.462;16.898;2023-03-02T12:46:01;40.15;;;18.87;;
32872;SDS011;19224;52.462;16.898;2023-03-02T12:51:54;27.98;;;14.28;;
32872;SDS011;19224;52.462;16.898;2023-03-02T12:54:29;25.20;;;13.25;;
32872;SDS011;19224;52.462;16.898;2023-03-02T12:57:06;25.80;;;14.85;;
32872;SDS011;19224;52.462;16.898;2023-03-02T12:59:56;27.17;;;14.55;;
32872;SDS011;19224;52.462;16.898;2023-03-02T13:02:31;29.30;;;15.28;;
32872;SDS011;19224;52.462;16.898;2023-03-02T13:05:05;31.87;;;15.95;;
32872;SDS011;19224;52.462;16.898;2023-03-02T13:07:38;35.60;;;14.07;;
32872;SDS011;19224;52.462;16.898;2023-03-02T13:10:19;32.33;;;14.78;;
32872;SDS011;19224;52.462;16.898;2023-03-02T13:12:58;28.62;;;15.05;;
32872;SDS011;19224;52.462;16.898;2023-03-02T13:15:30;32.83;;;15.65;;
32872;SDS011;19224;52.462;16.898;2023-03-02T13:18:01;36.30;;;15.80;;
32872;SDS011;19224;52.462;16.898;2023-03-02T13:20:31;37.63;;;16.97;;
32872;SDS011;19224;52.462;16.898;2023-03-02T13:23:02;33.35;;;15.32;;
32872;SDS011;19224;52.462;16.898;2023-03-02T13:25:32;28.30;;;14.45;;
32872;SDS011;19224;52.462;16.898;2023-03-02T13:28:03;24.18;;;13.88;;
32872;SDS011;19224;52.462;16.898;2023-03-02T13:30:35;27.85;;;15.00;;
32872;SDS011;19224;52.462;16.898;2023-03-02T13:33:17;25.82;;;13.60;;
32872;SDS011;19224;52.462;16.898;2023-03-02T13:35:48;29.12;;;13.78;;
32872;SDS011;19224;52.462;16.898;2023-03-02T13:38:19;21.37;;;12.78;;
32872;SDS011;19224;52.462;16.898;2023-03-02T13:40:53;25.35;;;13.30;;
32872;SDS011;19224;52.462;16.898;2023-03-02T13:43:34;24.05;;;12.80;;
32872;SDS011;19224;52.462;16.898;2023-03-02T13:48:59;26.65;;;13.65;;
32872;SDS011;19224;52.462;16.898;2023-03-02T13:51:40;22.95;;;12.15;;
32872;SDS011;19224;52.462;16.898;2023-03-02T13:54:21;24.70;;;13.32;;
32872;SDS011;19224;52.462;16.898;2023-03-02T13:56:55;23.67;;;13.03;;
32872;SDS011;19224;52.462;16.898;2023-03-02T13:59:29;22.60;;;12.78;;
32872;SDS011;19224;52.462;16.898;2023-03-02T14:02:09;25.00;;;13.75;;
32872;SDS011;19224;52.462;16.898;2023-03-02T14:04:54;26.62;;;14.65;;
32872;SDS011;19224;52.462;16.898;2023-03-02T14:07:25;25.32;;;14.47;;
32872;SDS011;19224;52.462;16.898;2023-03-02T14:09:55;26.25;;;14.28;;
32872;SDS011;19224;52.462;16.898;2023-03-02T14:12:27;28.95;;;15.28;;
32872;SDS011;19224;52.462;16.898;2023-03-02T14:15:00;27.27;;;14.93;;
32872;SDS011;19224;52.462;16.898;2023-03-02T14:17:33;40.48;;;18.00;;
32872;SDS011;19224;52.462;16.898;2023-03-02T14:20:04;30.55;;;15.85;;
32872;SDS011;19224;52.462;16.898;2023-03-02T14:22:37;28.15;;;15.50;;
32872;SDS011;19224;52.462;16.898;2023-03-02T14:25:08;28.42;;;15.43;;
32872;SDS011;19224;52.462;16.898;2023-03-02T14:27:39;29.80;;;15.23;;
32872;SDS011;19224;52.462;16.898;2023-03-02T14:30:15;27.02;;;15.18;;
32872;SDS011;19224;52.462;16.898;2023-03-02T14:32:48;29.30;;;14.50;;
32872;SDS011;19224;52.462;16.898;2023-03-02T14:35:18;27.62;;;15.58;;
32872;SDS011;19224;52.462;16.898;2023-03-02T14:37:50;22.62;;;12.75;;
32872;SDS011;19224;52.462;16.898;2023-03-02T14:40:26;27.73;;;12.85;;
32872;SDS011;19224;52.462;16.898;2023-03-02T14:42:55;26.05;;;12.65;;
32872;SDS011;19224;52.462;16.898;2023-03-02T14:45:25;20.70;;;11.20;;
32872;SDS011;19224;52.462;16.898;2023-03-02T14:47:56;22.52;;;12.18;;
32872;SDS011;19224;52.462;16.898;2023-03-02T14:50:27;22.45;;;11.70;;
32872;SDS011;19224;52.462;16.898;2023-03-02T14:52:57;21.80;;;11.68;;
32872;SDS011;19224;52.462;16.898;2023-03-02T14:55:28;22.17;;;12.20;;
32872;SDS011;19224;52.462;16.898;2023-03-02T14:58:04;21.15;;;11.65;;
32872;SDS011;19224;52.462;16.898;2023-03-02T15:00:41;26.82;;;12.68;;
32872;SDS011;19224;52.462;16.898;2023-03-02T15:03:13;25.02;;;12.98;;
32872;SDS011;19224;52.462;16.898;2023-03-02T15:05:49;21.48;;;11.43;;
32872;SDS011;19224;52.462;16.898;2023-03-02T15:08:21;20.92;;;11.83;;
32872;SDS011;19224;52.462;16.898;2023-03-02T15:10:53;23.85;;;12.90;;
32872;SDS011;19224;52.462;16.898;2023-03-02T15:13:24;22.22;;;12.75;;
32872;SDS011;19224;52.462;16.898;2023-03-02T15:15:54;19.20;;;10.65;;
32872;SDS011;19224;52.462;16.898;2023-03-02T15:18:25;19.82;;;11.18;;
32872;SDS011;19224;52.462;16.898;2023-03-02T15:20:55;17.80;;;9.85;;
32872;SDS011;19224;52.462;16.898;2023-03-02T15:23:25;16.87;;;9.95;;
32872;SDS011;19224;52.462;16.898;2023-03-02T15:25:59;17.10;;;9.10;;
32872;SDS011;19224;52.462;16.898;2023-03-02T15:28:31;20.88;;;10.48;;
32872;SDS011;19224;52.462;16.898;2023-03-02T15:31:08;20.15;;;10.43;;
32872;SDS011;19224;52.462;16.898;2023-03-02T15:33:42;32.95;;;15.75;;
32872;SDS011;19224;52.462;16.898;2023-03-02T15:36:13;21.30;;;11.28;;
32872;SDS011;19224;52.462;16.898;2023-03-02T15:38:43;19.57;;;9.95;;
32872;SDS011;19224;52.462;16.898;2023-03-02T15:41:18;18.85;;;10.60;;
32872;SDS011;19224;52.462;16.898;2023-03-02T15:46:32;17.82;;;9.35;;
32872;SDS011;19224;52.462;16.898;2023-03-02T15:49:02;18.15;;;9.13;;
32872;SDS011;19224;52.462;16.898;2023-03-02T15:51:32;26.23;;;9.55;;
32872;SDS011;19224;52.462;16.898;2023-03-02T15:54:03;28.25;;;9.55;;
32872;SDS011;19224;52.462;16.898;2023-03-02T15:56:33;18.27;;;9.85;;
32872;SDS011;19224;52.462;16.898;2023-03-02T15:59:03;17.52;;;9.35;;